createdAt,value
2023-08-14T00:01:42.107Z,67.89
2023-08-14T00:04:08.771Z,67.94
2023-08-14T00:06:35.411Z,67.95
2023-08-14T00:09:02.026Z,68.16
2023-08-14T00:11:28.576Z,67.44
2023-08-14T00:13:57.207Z,67.93
2023-08-14T00:16:25.456Z,68.18
2023-08-14T00:18:52.368Z,67.96
2023-08-14T00:21:19.061Z,68.46
2023-08-14T00:23:46.124Z,68.48
2023-08-14T00:26:16.054Z,68.38
2023-08-14T00:28:42.660Z,68.77
2023-08-14T00:31:09.298Z,68.69
2023-08-14T00:33:35.897Z,68.93
2023-08-14T00:36:02.591Z,68.36
2023-08-14T00:38:29.155Z,68.60
2023-08-14T00:40:55.768Z,69.00
2023-08-14T00:43:23.707Z,68.62
2023-08-14T00:45:55.530Z,68.44
2023-08-14T00:48:23.397Z,68.30
2023-08-14T00:50:50.087Z,68.32
2023-08-14T00:53:18.691Z,68.37
2023-08-14T00:55:46.261Z,68.51
2023-08-14T00:58:13.845Z,68.08
2023-08-14T01:00:40.760Z,68.15
2023-08-14T01:03:07.586Z,67.98
2023-08-14T01:05:34.198Z,68.33
2023-08-14T01:08:00.830Z,68.26
2023-08-14T01:10:40.586Z,68.19
2023-08-14T01:13:26.113Z,67.88
2023-08-14T01:15:58.422Z,68.17
2023-08-14T01:18:27.552Z,68.56
2023-08-14T01:21:10.339Z,68.17
2023-08-14T01:24:01.651Z,68.48
2023-08-14T01:26:30.167Z,68.35
2023-08-14T01:28:57.431Z,68.61
2023-08-14T01:31:24.051Z,68.56
2023-08-14T01:33:50.630Z,68.87
2023-08-14T01:36:24.938Z,69.68
2023-08-14T01:39:03.156Z,69.41
2023-08-14T01:41:37.835Z,69.07
2023-08-14T01:44:08.641Z,69.26
2023-08-14T01:46:36.703Z,69.41
2023-08-14T01:49:04.319Z,69.24
2023-08-14T01:51:31.953Z,69.37
2023-08-14T01:53:58.688Z,69.71
2023-08-14T01:56:25.260Z,69.57
2023-08-14T01:58:51.827Z,70.16
2023-08-14T02:01:18.393Z,70.18
2023-08-14T02:03:45.086Z,70.69
2023-08-14T02:06:11.739Z,70.53
2023-08-14T02:08:38.351Z,70.86
2023-08-14T02:11:11.135Z,70.96
2023-08-14T02:13:37.774Z,70.82
2023-08-14T02:16:04.926Z,71.07
2023-08-14T02:18:32.091Z,70.70
2023-08-14T02:20:58.700Z,71.09
2023-08-14T02:23:25.309Z,70.54
2023-08-14T02:25:56.006Z,70.99
2023-08-14T02:28:22.824Z,71.02
2023-08-14T02:30:49.439Z,71.05
2023-08-14T02:33:16.066Z,71.18
2023-08-14T02:35:42.636Z,71.17
2023-08-14T02:38:09.530Z,71.33
2023-08-14T02:40:36.375Z,71.42
2023-08-14T02:43:04.069Z,71.96
2023-08-14T02:45:30.903Z,71.76
2023-08-14T02:47:57.552Z,72.13
2023-08-14T02:50:24.403Z,71.79
2023-08-14T02:52:51.214Z,72.54
2023-08-14T02:55:17.983Z,72.60
2023-08-14T02:57:44.672Z,72.47
2023-08-14T03:00:12.004Z,72.77
2023-08-14T03:02:38.810Z,72.81
2023-08-14T03:05:05.548Z,72.08
2023-08-14T03:07:32.139Z,72.23
2023-08-14T03:09:58.767Z,72.32
2023-08-14T03:12:25.305Z,71.74
2023-08-14T03:14:51.885Z,71.98
2023-08-14T03:17:18.464Z,72.00
2023-08-14T03:19:45.079Z,71.81
2023-08-14T03:22:11.677Z,72.48
2023-08-14T03:24:38.280Z,72.11
2023-08-14T03:27:04.910Z,72.04
2023-08-14T03:29:31.473Z,72.03
2023-08-14T03:31:58.019Z,71.59
2023-08-14T03:34:24.718Z,72.40
2023-08-14T03:36:51.274Z,71.75
2023-08-14T03:39:17.814Z,71.73
2023-08-14T03:41:45.810Z,71.66
2023-08-14T03:44:12.578Z,71.69
2023-08-14T03:46:39.247Z,71.78
2023-08-14T03:49:06.506Z,71.36
2023-08-14T03:51:33.323Z,70.95
2023-08-14T03:53:59.937Z,71.24
2023-08-14T03:56:26.674Z,70.85
2023-08-14T03:58:53.314Z,71.26
2023-08-14T04:01:20.335Z,71.32
2023-08-14T04:03:47.019Z,71.43
2023-08-14T04:06:13.681Z,71.02
2023-08-14T04:08:40.287Z,70.84
2023-08-14T04:11:06.808Z,71.19
2023-08-14T04:13:33.559Z,71.50
2023-08-14T04:16:04.845Z,71.54
2023-08-14T04:18:31.630Z,71.47
2023-08-14T04:20:58.599Z,71.72
2023-08-14T04:23:26.926Z,72.12
2023-08-14T04:25:54.091Z,71.99
2023-08-14T04:28:20.688Z,72.67
2023-08-14T04:30:47.303Z,72.77
2023-08-14T04:33:13.957Z,72.48
2023-08-14T04:35:41.307Z,72.50
2023-08-14T04:38:08.205Z,73.14
2023-08-14T04:40:34.865Z,73.63
2023-08-14T04:43:01.514Z,72.88
2023-08-14T04:45:28.109Z,73.11
2023-08-14T04:47:57.363Z,73.00
2023-08-14T04:50:24.441Z,73.42
2023-08-14T04:52:51.039Z,73.76
2023-08-14T04:55:17.711Z,72.99
2023-08-14T04:57:44.718Z,71.50
2023-08-14T05:00:12.018Z,69.79
2023-08-14T05:02:38.985Z,68.86
2023-08-14T05:05:05.828Z,66.21
2023-08-14T05:07:32.458Z,64.41
2023-08-14T05:09:59.170Z,65.17
2023-08-14T05:12:25.792Z,65.17
2023-08-14T05:14:55.282Z,63.90
2023-08-14T05:17:22.354Z,63.09
2023-08-14T05:19:48.982Z,62.26
2023-08-14T05:22:15.831Z,61.81
2023-08-14T05:24:42.724Z,61.68
2023-08-14T05:27:09.371Z,61.44
2023-08-14T05:29:35.943Z,61.71
2023-08-14T05:32:02.503Z,61.80
2023-08-14T05:34:29.093Z,61.64
2023-08-14T05:36:55.724Z,61.05
2023-08-14T05:39:22.408Z,60.51
2023-08-14T05:41:50.692Z,60.14
2023-08-14T05:44:18.467Z,60.09
2023-08-14T05:46:48.098Z,59.62
2023-08-14T05:49:16.104Z,59.26
2023-08-14T05:51:42.725Z,59.12
2023-08-14T05:54:10.095Z,59.68
2023-08-14T05:56:36.804Z,59.42
2023-08-14T05:59:03.581Z,59.18
2023-08-14T06:01:30.173Z,59.29
2023-08-14T06:03:57.038Z,59.57
2023-08-14T06:06:23.841Z,59.40
2023-08-14T06:08:50.898Z,59.50
2023-08-14T06:11:17.550Z,59.81
2023-08-14T06:13:44.294Z,59.20
2023-08-14T06:16:10.882Z,58.77
2023-08-14T06:18:37.432Z,58.81
2023-08-14T06:21:04.121Z,57.83
2023-08-14T06:23:30.636Z,58.32
2023-08-14T06:25:58.541Z,58.06
2023-08-14T06:28:25.123Z,57.70
2023-08-14T06:30:51.731Z,57.80
2023-08-14T06:33:18.353Z,57.66
2023-08-14T06:35:44.902Z,57.31
2023-08-14T06:38:11.509Z,57.93
2023-08-14T06:40:38.066Z,57.46
2023-08-14T06:43:07.489Z,56.37
2023-08-14T06:45:34.323Z,57.01
2023-08-14T06:48:00.986Z,57.65
2023-08-14T06:50:27.912Z,57.20
2023-08-14T06:52:54.570Z,56.71
2023-08-14T06:55:22.072Z,56.72
2023-08-14T06:57:48.716Z,57.44
2023-08-14T07:00:16.184Z,58.28
2023-08-14T07:02:44.575Z,59.60
2023-08-14T07:05:12.171Z,60.17
2023-08-14T07:07:39.814Z,60.02
2023-08-14T07:10:07.601Z,60.58
2023-08-14T07:12:34.499Z,60.65
2023-08-14T07:15:05.972Z,60.10
2023-08-14T07:17:33.107Z,59.52
2023-08-14T07:19:59.703Z,58.83
2023-08-14T07:22:26.372Z,58.56
2023-08-14T07:24:52.980Z,58.06
2023-08-14T07:27:20.676Z,57.85
2023-08-14T07:29:48.346Z,57.19
2023-08-14T07:32:14.882Z,57.13
2023-08-14T07:34:41.432Z,56.43
2023-08-14T07:37:08.031Z,56.55
2023-08-14T07:39:34.693Z,55.93
2023-08-14T07:42:01.256Z,55.67
2023-08-14T07:44:27.858Z,56.60
2023-08-14T07:46:54.620Z,56.58
2023-08-14T07:49:21.443Z,55.96
2023-08-14T07:51:48.008Z,55.55
2023-08-14T07:54:14.789Z,55.86
2023-08-14T07:56:42.978Z,55.73
2023-08-14T07:59:11.431Z,56.86
2023-08-14T08:01:38.100Z,57.07
2023-08-14T08:04:05.148Z,56.96
2023-08-14T08:06:43.380Z,56.58
2023-08-14T08:09:10.466Z,56.61
2023-08-14T08:11:37.110Z,56.17
2023-08-14T08:14:06.623Z,55.58
2023-08-14T08:16:37.544Z,54.96
2023-08-14T08:19:06.366Z,54.84
2023-08-14T08:21:33.934Z,56.12
2023-08-14T08:24:00.941Z,55.95
2023-08-14T08:26:27.618Z,55.97
2023-08-14T08:28:54.307Z,55.68
2023-08-14T08:31:21.088Z,55.48
2023-08-14T08:33:47.769Z,55.40
2023-08-14T08:36:14.534Z,55.73
2023-08-14T08:38:42.799Z,55.99
2023-08-14T08:41:10.535Z,56.27
2023-08-14T08:43:37.370Z,56.34
2023-08-14T08:46:10.405Z,56.66
2023-08-14T08:48:43.643Z,56.77
2023-08-14T08:51:10.947Z,56.37
2023-08-14T08:53:38.524Z,56.50
2023-08-14T08:56:05.822Z,58.29
2023-08-14T08:58:32.749Z,58.74
2023-08-14T09:01:00.741Z,60.37
2023-08-14T09:03:27.705Z,59.91
2023-08-14T09:05:55.258Z,60.25
2023-08-14T09:08:22.018Z,60.37
2023-08-14T09:10:48.608Z,60.36
2023-08-14T09:13:16.101Z,60.47
2023-08-14T09:15:44.173Z,60.56
2023-08-14T09:18:12.193Z,61.00
2023-08-14T09:20:40.351Z,61.69
2023-08-14T09:23:13.671Z,62.47
2023-08-14T09:25:47.609Z,62.82
2023-08-14T09:28:14.466Z,63.60
2023-08-14T09:30:41.639Z,64.12
2023-08-14T09:33:10.722Z,65.06
2023-08-14T09:35:38.915Z,65.56
2023-08-14T09:38:06.084Z,65.84
2023-08-14T09:40:34.066Z,66.63
2023-08-14T09:43:01.431Z,67.99
2023-08-14T09:45:29.499Z,67.61
2023-08-14T09:48:05.114Z,67.85
2023-08-14T09:50:32.601Z,67.65
2023-08-14T09:53:00.649Z,68.54
2023-08-14T09:55:28.702Z,69.60
2023-08-14T09:57:56.758Z,70.58
2023-08-14T10:00:27.430Z,71.10
2023-08-14T10:05:24.240Z,72.20
2023-08-14T10:07:54.452Z,71.78
2023-08-14T10:10:23.630Z,70.72
2023-08-14T10:13:05.949Z,70.36
2023-08-14T10:15:41.452Z,70.14
2023-08-14T10:18:15.936Z,69.82
2023-08-14T10:20:47.365Z,69.76
2023-08-14T10:23:16.024Z,69.56
2023-08-14T10:25:43.955Z,69.47
2023-08-14T10:28:11.010Z,69.41
2023-08-14T10:30:39.610Z,68.67
2023-08-14T10:33:07.670Z,68.43
2023-08-14T10:35:57.103Z,68.20
2023-08-14T10:38:40.389Z,68.24
2023-08-14T10:41:09.003Z,67.93
2023-08-14T10:43:35.939Z,68.32
2023-08-14T10:46:14.748Z,68.15
2023-08-14T10:48:43.424Z,68.63
2023-08-14T10:51:11.134Z,69.30
2023-08-14T10:53:38.436Z,69.22
2023-08-14T10:56:08.461Z,69.25
2023-08-14T10:58:37.824Z,69.89
2023-08-14T11:01:10.363Z,69.95
2023-08-14T11:03:55.508Z,70.96
2023-08-14T11:06:30.195Z,71.61
2023-08-14T11:09:05.092Z,70.98
2023-08-14T11:11:31.805Z,70.10
2023-08-14T11:13:58.590Z,69.44
2023-08-14T11:16:26.280Z,68.89
2023-08-14T11:18:55.764Z,68.95
2023-08-14T11:23:55.623Z,68.70
2023-08-14T11:26:22.250Z,69.55
2023-08-14T11:28:48.786Z,69.73
2023-08-14T11:31:17.668Z,69.85
2023-08-14T11:33:46.222Z,69.56
2023-08-14T11:36:12.844Z,68.94
2023-08-14T11:38:41.542Z,69.26
2023-08-14T11:41:08.219Z,69.77
2023-08-14T11:43:37.385Z,70.04
2023-08-14T11:46:04.498Z,69.87
2023-08-14T11:48:33.768Z,69.28
2023-08-14T11:51:00.442Z,69.03
2023-08-14T11:53:27.914Z,69.01
2023-08-14T11:55:54.535Z,69.32
2023-08-14T11:58:21.116Z,69.25
2023-08-14T12:00:51.701Z,68.57
2023-08-14T12:03:19.023Z,68.68
2023-08-14T12:05:49.033Z,68.87
2023-08-14T12:08:15.768Z,68.61
2023-08-14T12:10:42.552Z,68.21
2023-08-14T12:13:09.103Z,67.98
2023-08-14T12:15:36.533Z,67.69
2023-08-14T12:18:03.548Z,67.36
2023-08-14T12:20:34.719Z,66.43
2023-08-14T12:23:13.780Z,65.75
2023-08-14T12:25:40.546Z,65.41
2023-08-14T12:28:07.150Z,65.47
2023-08-14T12:30:33.762Z,64.76
2023-08-14T12:33:00.604Z,64.02
2023-08-14T12:35:27.417Z,63.09
2023-08-14T12:37:54.007Z,63.12
2023-08-14T12:40:20.582Z,63.16
2023-08-14T12:42:47.237Z,62.90
2023-08-14T12:45:14.002Z,63.84
2023-08-14T12:47:40.668Z,63.53
2023-08-14T12:50:07.755Z,63.41
2023-08-14T12:52:34.359Z,62.63
2023-08-14T12:57:30.828Z,60.14
2023-08-14T12:59:57.392Z,60.55
2023-08-14T13:02:25.455Z,60.95
2023-08-14T13:04:56.779Z,61.01
2023-08-14T13:07:27.049Z,60.43
2023-08-14T13:09:53.678Z,60.34
2023-08-14T13:12:20.358Z,59.79
2023-08-14T13:14:47.179Z,59.65
2023-08-14T13:17:13.771Z,59.44
2023-08-14T13:19:41.086Z,57.83
2023-08-14T13:22:07.642Z,57.17
2023-08-14T13:24:34.248Z,57.40
2023-08-14T13:27:08.332Z,57.34
2023-08-14T13:29:37.031Z,57.05
2023-08-14T13:32:03.674Z,56.46
2023-08-14T13:34:30.800Z,56.13
2023-08-14T13:36:57.380Z,55.76
2023-08-14T13:39:23.950Z,54.83
2023-08-14T13:41:50.574Z,54.49
2023-08-14T13:44:17.432Z,54.50
2023-08-14T13:46:44.008Z,54.80
2023-08-14T13:49:11.096Z,53.93
2023-08-14T13:51:37.660Z,53.99
2023-08-14T13:54:04.571Z,53.39
2023-08-14T13:56:31.376Z,53.70
2023-08-14T13:58:59.327Z,53.95
2023-08-14T14:01:27.451Z,53.83
2023-08-14T14:03:54.673Z,52.56
2023-08-14T14:06:21.643Z,51.80
2023-08-14T14:08:48.340Z,52.52
2023-08-14T14:11:15.210Z,51.33
2023-08-14T14:13:41.855Z,51.27
2023-08-14T14:16:08.997Z,50.73
2023-08-14T14:18:35.645Z,50.72
2023-08-14T14:21:02.245Z,50.82
2023-08-14T14:23:28.813Z,50.56
2023-08-14T14:25:55.364Z,50.57
2023-08-14T14:28:22.064Z,52.32
2023-08-14T14:30:48.638Z,51.68
2023-08-14T14:33:15.287Z,51.89
2023-08-14T14:35:41.840Z,51.94
2023-08-14T14:38:09.608Z,51.39
2023-08-14T14:40:36.164Z,51.14
2023-08-14T14:43:02.834Z,50.81
2023-08-14T14:47:59.018Z,47.23
2023-08-14T14:50:29.874Z,45.08
2023-08-14T14:52:57.993Z,43.42
2023-08-14T14:55:27.378Z,42.08
2023-08-14T14:57:53.975Z,41.94
2023-08-14T15:00:20.680Z,41.89
2023-08-14T15:02:47.389Z,41.30
2023-08-14T15:05:22.156Z,40.64
2023-08-14T15:07:54.174Z,39.65
2023-08-14T15:10:20.931Z,38.43
2023-08-14T15:12:47.572Z,37.35
2023-08-14T15:15:14.320Z,37.29
2023-08-14T15:17:44.515Z,37.30
2023-08-14T15:20:13.537Z,36.37
2023-08-14T15:22:40.787Z,35.72
2023-08-14T15:25:09.068Z,35.43
2023-08-14T15:27:36.044Z,35.06
2023-08-14T15:30:03.348Z,35.51
2023-08-14T15:32:30.206Z,36.16
2023-08-14T15:34:56.972Z,36.40
2023-08-14T15:37:23.749Z,37.39
2023-08-14T15:39:51.854Z,37.31
2023-08-14T15:42:18.813Z,37.47
2023-08-14T15:44:45.518Z,38.58
2023-08-14T15:47:11.999Z,39.12
2023-08-14T15:49:38.556Z,39.44
2023-08-14T15:52:05.378Z,37.31
2023-08-14T15:54:43.129Z,37.32
2023-08-14T15:57:18.748Z,36.56
2023-08-14T15:59:45.488Z,36.31
2023-08-14T16:02:12.086Z,36.01
2023-08-14T16:04:38.675Z,35.53
2023-08-14T16:07:05.334Z,35.35
2023-08-14T16:09:32.084Z,34.83
2023-08-14T16:11:58.651Z,34.80
2023-08-14T16:14:26.118Z,34.78
2023-08-14T16:16:52.828Z,36.33
2023-08-14T16:19:21.667Z,36.66
2023-08-14T16:21:48.404Z,37.93
2023-08-14T16:24:15.124Z,37.78
2023-08-14T16:26:41.753Z,36.29
2023-08-14T16:29:08.301Z,35.57
2023-08-14T16:31:34.888Z,35.46
2023-08-14T16:34:01.494Z,35.19
2023-08-14T16:36:28.169Z,33.82
2023-08-14T16:38:54.817Z,33.61
2023-08-14T16:41:21.432Z,34.06
2023-08-14T16:43:48.076Z,32.99
2023-08-14T16:46:14.685Z,32.78
2023-08-14T16:48:41.298Z,33.31
2023-08-14T16:51:08.082Z,32.98
2023-08-14T16:53:34.693Z,33.55
2023-08-14T16:56:01.311Z,34.44
2023-08-14T16:58:27.914Z,33.90
2023-08-14T17:00:54.705Z,33.99
2023-08-14T17:03:21.379Z,33.26
2023-08-14T17:05:47.935Z,35.69
2023-08-14T17:08:14.491Z,37.78
2023-08-14T17:10:45.167Z,38.94
2023-08-14T17:13:11.883Z,41.21
2023-08-14T17:15:42.671Z,42.39
2023-08-14T17:18:09.303Z,43.91
2023-08-14T17:20:36.008Z,45.50
2023-08-14T17:23:02.821Z,46.85
2023-08-14T17:25:29.436Z,47.93
2023-08-14T17:27:55.993Z,49.41
2023-08-14T17:30:22.609Z,49.41
2023-08-14T17:32:53.499Z,51.50
2023-08-14T17:35:21.567Z,52.17
2023-08-14T17:37:48.161Z,53.62
2023-08-14T17:40:14.942Z,54.66
2023-08-14T17:42:42.273Z,56.14
2023-08-14T17:45:09.172Z,56.08
2023-08-14T17:47:36.583Z,57.17
2023-08-14T17:50:03.296Z,58.32
2023-08-14T17:52:29.934Z,58.78
2023-08-14T17:54:56.483Z,59.58
2023-08-14T17:57:23.396Z,60.51
2023-08-14T17:59:50.075Z,61.13
2023-08-14T18:02:16.618Z,61.25
2023-08-14T18:04:43.142Z,61.94
2023-08-14T18:07:09.908Z,62.65
2023-08-14T18:09:36.580Z,63.31
2023-08-14T18:12:04.545Z,63.75
2023-08-14T18:14:31.219Z,64.31
2023-08-14T18:16:57.855Z,64.98
2023-08-14T18:19:29.478Z,65.44
2023-08-14T18:21:57.269Z,65.75
2023-08-14T18:24:23.945Z,66.53
2023-08-14T18:26:50.598Z,67.04
2023-08-14T18:29:17.974Z,67.53
2023-08-14T18:31:44.607Z,67.75
2023-08-14T18:34:11.232Z,68.14
2023-08-14T18:36:37.816Z,68.44
2023-08-14T18:39:04.707Z,68.80
2023-08-14T18:41:31.367Z,69.34
2023-08-14T18:43:58.586Z,69.56
2023-08-14T18:46:27.219Z,69.71
2023-08-14T18:48:54.039Z,70.19
2023-08-14T18:51:20.779Z,70.35
2023-08-14T18:53:49.080Z,70.81
2023-08-14T18:56:15.652Z,70.91
2023-08-14T18:58:42.247Z,71.26
2023-08-14T19:01:08.939Z,71.26
2023-08-14T19:03:35.633Z,71.37
2023-08-14T19:06:02.315Z,72.17
2023-08-14T19:08:28.958Z,72.25
2023-08-14T19:10:55.493Z,72.67
2023-08-14T19:13:22.026Z,72.38
2023-08-14T19:15:50.012Z,72.62
2023-08-14T19:18:17.266Z,72.82
2023-08-14T19:20:44.477Z,73.50
2023-08-14T19:23:11.482Z,73.84
2023-08-14T19:25:41.268Z,74.01
2023-08-14T19:28:21.035Z,74.11
2023-08-14T19:30:48.699Z,74.17
2023-08-14T19:33:15.680Z,74.44
2023-08-14T19:35:43.898Z,74.55
2023-08-14T19:38:11.212Z,74.82
2023-08-14T19:40:38.642Z,74.84
2023-08-14T19:43:05.516Z,74.80
2023-08-14T19:45:33.938Z,75.14
2023-08-14T19:48:00.586Z,75.20
2023-08-14T19:50:27.308Z,75.22
2023-08-14T19:52:53.967Z,75.13
2023-08-14T19:55:20.556Z,75.37
2023-08-14T19:57:47.268Z,75.95
2023-08-14T20:00:14.169Z,76.26
2023-08-14T20:02:40.786Z,76.21
2023-08-14T20:05:07.868Z,76.45
2023-08-14T20:07:34.517Z,76.34
2023-08-14T20:10:01.656Z,76.45
2023-08-14T20:12:28.522Z,76.32
2023-08-14T20:14:55.735Z,76.19
2023-08-14T20:17:22.431Z,76.18
2023-08-14T20:19:49.214Z,76.35
2023-08-14T20:22:15.779Z,76.36
2023-08-14T20:24:42.326Z,76.41
2023-08-14T20:27:09.072Z,76.52
2023-08-14T20:29:35.702Z,76.44
2023-08-14T20:32:03.077Z,76.40
2023-08-14T20:34:29.693Z,76.28
2023-08-14T20:36:56.334Z,76.33
2023-08-14T20:39:23.497Z,76.36
2023-08-14T20:41:50.372Z,76.56
2023-08-14T20:44:16.985Z,76.45
2023-08-14T20:46:44.612Z,76.52
2023-08-14T20:49:11.494Z,76.79
2023-08-14T20:51:38.188Z,77.00
2023-08-14T20:54:05.104Z,77.40
2023-08-14T20:56:31.908Z,77.52
2023-08-14T20:58:58.560Z,77.62
2023-08-14T21:01:25.140Z,77.89
2023-08-14T21:03:51.875Z,78.17
2023-08-14T21:06:18.910Z,78.41
2023-08-14T21:08:45.588Z,78.50
2023-08-14T21:11:15.088Z,78.57
2023-08-14T21:13:42.714Z,78.59
2023-08-14T21:16:09.327Z,78.58
2023-08-14T21:18:35.941Z,78.55
2023-08-14T21:21:02.509Z,78.69
2023-08-14T21:23:29.065Z,78.99
2023-08-14T21:25:56.613Z,78.90
2023-08-14T21:28:23.261Z,78.99
2023-08-14T21:30:58.693Z,79.02
2023-08-14T21:33:25.718Z,79.10
2023-08-14T21:35:52.344Z,79.20
2023-08-14T21:38:19.076Z,79.44
2023-08-14T21:40:45.710Z,79.32
2023-08-14T21:43:12.277Z,79.29
2023-08-14T21:45:41.233Z,79.44
2023-08-14T21:48:08.168Z,79.61
2023-08-14T21:50:37.307Z,79.82
2023-08-14T21:53:04.707Z,79.98
2023-08-14T21:55:31.923Z,80.26
2023-08-14T21:57:58.556Z,80.27
2023-08-14T22:00:25.292Z,80.52
2023-08-14T22:02:53.765Z,80.34
2023-08-14T22:05:20.543Z,80.51
2023-08-14T22:07:47.128Z,80.45
2023-08-14T22:10:13.819Z,80.80
2023-08-14T22:12:45.279Z,81.06
2023-08-14T22:15:12.182Z,81.04
2023-08-14T22:17:38.920Z,81.09
2023-08-14T22:20:06.272Z,81.29
2023-08-14T22:22:32.794Z,81.26
2023-08-14T22:24:59.308Z,81.39
2023-08-14T22:27:25.864Z,81.63
2023-08-14T22:29:52.466Z,82.04
2023-08-14T22:32:19.098Z,81.64
2023-08-14T22:34:45.641Z,81.94
2023-08-14T22:37:12.215Z,81.83
2023-08-14T22:39:38.782Z,82.16
2023-08-14T22:42:05.840Z,82.45
2023-08-14T22:44:32.471Z,82.73
2023-08-14T22:46:59.003Z,82.62
2023-08-14T22:49:25.595Z,82.95
2023-08-14T22:51:52.211Z,82.60
2023-08-14T22:54:18.796Z,83.30
2023-08-14T22:56:45.368Z,83.17
2023-08-14T22:59:12.107Z,83.50
2023-08-14T23:01:38.928Z,83.55
2023-08-14T23:04:05.619Z,83.54
2023-08-14T23:06:32.317Z,83.61
2023-08-14T23:08:58.942Z,83.89
2023-08-14T23:11:25.548Z,83.57
2023-08-14T23:13:52.103Z,83.78
2023-08-14T23:16:18.649Z,83.90
2023-08-14T23:18:45.259Z,84.29
2023-08-14T23:21:11.961Z,84.61
2023-08-14T23:23:38.482Z,84.54
2023-08-14T23:26:08.333Z,84.67
2023-08-14T23:28:35.144Z,85.08
2023-08-14T23:31:03.533Z,84.84
2023-08-14T23:33:30.398Z,84.93
2023-08-14T23:35:57.564Z,84.95
2023-08-14T23:38:24.985Z,85.14
2023-08-14T23:40:51.549Z,85.19
2023-08-14T23:43:18.145Z,85.43
2023-08-14T23:45:45.097Z,85.59
2023-08-14T23:48:11.659Z,85.85
2023-08-14T23:50:38.596Z,85.64
2023-08-14T23:53:05.302Z,85.93
2023-08-14T23:55:31.871Z,85.80
2023-08-14T23:57:58.423Z,85.54
